Time;durP1;ratioP1;P1;durP2;ratioP2;P2;SDS_P1;SDS_P2;PMS_P1;PMS_P2;Temp;Humidity;BMP_temperature;BMP_pressure;BME280_temperature;BME280_humidity;BME280_pressure;Samples;Min_cycle;Max_cycle;Signal;HPM_P1;HPM_P2
2022/08/26 00:00:03;;;;;;;32.80;29.52;;;;;;;23.22;100.00;100417.31;5057343;28;20057;-81
2022/08/26 00:02:30;;;;;;;35.25;31.45;;;;;;;23.27;100.00;100419.13;5065840;28;20055;-80
2022/08/26 00:04:58;;;;;;;33.45;30.95;;;;;;;23.51;100.00;100414.34;5060655;28;20402;-80
2022/08/26 00:07:28;;;;;;;35.50;31.98;;;;;;;23.79;100.00;100403.53;5054099;28;20057;-83
2022/08/26 00:09:57;;;;;;;36.13;32.15;;;;;;;23.69;100.00;100401.84;5058775;28;20080;-80
2022/08/26 00:12:24;;;;;;;41.78;37.22;;;;;;;23.65;100.00;100397.28;5064834;28;20049;-79
2022/08/26 00:14:53;;;;;;;42.22;38.03;;;;;;;23.38;100.00;100393.44;5056200;28;20060;-82
2022/08/26 00:17:20;;;;;;;38.08;34.67;;;;;;;23.41;100.00;100390.13;5054776;28;20037;-81
2022/08/26 00:19:47;;;;;;;36.60;32.95;;;;;;;23.48;100.00;100392.44;5058531;28;20057;-80
2022/08/26 00:22:22;;;;;;;36.72;32.97;;;;;;;23.60;100.00;100392.78;5065176;28;20055;-83
2022/08/26 00:24:50;;;;;;;39.03;35.15;;;;;;;23.57;100.00;100393.38;5055999;28;20045;-81
2022/08/26 00:27:18;;;;;;;42.47;38.42;;;;;;;23.53;100.00;100395.84;5067705;28;20049;-81
2022/08/26 00:29:46;;;;;;;39.47;35.78;;;;;;;23.42;100.00;100394.47;5054144;28;20049;-81
2022/08/26 00:32:14;;;;;;;36.47;33.22;;;;;;;23.29;100.00;100393.31;5054095;28;20049;-81
2022/08/26 00:34:44;;;;;;;33.88;30.27;;;;;;;22.99;100.00;100399.28;5059436;28;20045;-83
2022/08/26 00:37:13;;;;;;;33.80;30.23;;;;;;;22.73;100.00;100404.28;5060975;28;20063;-81
2022/08/26 00:39:41;;;;;;;38.67;34.75;;;;;;;22.56;100.00;100405.59;5058768;28;20065;-82
2022/08/26 00:42:09;;;;;;;42.67;38.58;;;;;;;22.44;100.00;100401.72;5053547;28;20041;-83
2022/08/26 00:44:37;;;;;;;37.80;34.70;;;;;;;22.29;100.00;100411.66;5057884;28;20062;-81
2022/08/26 00:47:23;;;;;;;42.28;38.63;;;;;;;22.06;100.00;100405.19;5062892;28;20063;-83
2022/08/26 00:49:57;;;;;;;43.15;39.05;;;;;;;21.37;100.00;100398.41;5059524;28;20060;-83
2022/08/26 00:52:24;;;;;;;41.35;37.45;;;;;;;21.76;100.00;100392.06;5065443;28;20045;-84
2022/08/26 00:55:00;;;;;;;42.70;39.13;;;;;;;21.71;100.00;100395.59;5070997;28;20392;-83
2022/08/26 00:57:30;;;;;;;47.30;43.15;;;;;;;21.36;100.00;100402.19;5067347;28;20059;-82
2022/08/26 01:00:01;;;;;;;45.50;41.50;;;;;;;21.22;100.00;100394.72;5067825;28;20045;-82
2022/08/26 01:02:28;;;;;;;41.90;38.55;;;;;;;21.26;100.00;100394.97;5062651;28;20049;-80
2022/08/26 01:04:59;;;;;;;43.60;37.85;;;;;;;20.74;100.00;100399.19;5060126;28;20048;-82
2022/08/26 01:07:27;;;;;;;44.05;40.58;;;;;;;21.18;100.00;100400.97;5060328;28;20060;-81
2022/08/26 01:10:03;;;;;;;40.97;36.97;;;;;;;21.39;100.00;100399.75;5061257;28;20036;-84
2022/08/26 01:12:36;;;;;;;38.90;35.28;;;;;;;21.03;100.00;100394.63;5066703;28;20055;-80
2022/08/26 01:15:06;;;;;;;50.33;46.20;;;;;;;21.31;100.00;100410.31;5058846;28;20071;-80
2022/08/26 01:17:33;;;;;;;43.80;40.05;;;;;;;21.15;100.00;100401.53;5063606;28;20063;-82
2022/08/26 01:20:06;;;;;;;45.17;41.25;;;;;;;21.19;100.00;100411.50;5068843;28;20045;-83
2022/08/26 01:22:49;;;;;;;51.22;47.35;;;;;;;21.00;100.00;100413.28;5066334;28;20493;-84
2022/08/26 01:25:17;;;;;;;46.95;42.70;;;;;;;21.03;100.00;100418.13;5061079;28;20460;-83
2022/08/26 01:27:45;;;;;;;50.30;46.28;;;;;;;20.88;100.00;100421.75;5067890;28;20123;-80
2022/08/26 01:30:14;;;;;;;49.65;45.67;;;;;;;20.83;100.00;100421.78;5069320;28;20128;-84
2022/08/26 01:32:42;;;;;;;45.85;41.70;;;;;;;20.97;100.00;100413.88;5056058;28;20059;-82
2022/08/26 01:35:09;;;;;;;40.00;35.88;;;;;;;21.04;100.00;100425.94;5056519;28;20060;-82
2022/08/26 01:37:39;;;;;;;52.38;47.97;;;;;;;20.20;100.00;100419.69;5069834;28;20045;-82
2022/08/26 01:40:13;;;;;;;57.08;52.40;;;;;;;20.68;100.00;100430.00;5056437;28;20055;-83
2022/08/26 01:42:42;;;;;;;52.42;48.03;;;;;;;20.86;100.00;100429.31;5065548;28;20045;-80
2022/08/26 01:45:14;;;;;;;42.97;39.17;;;;;;;20.76;100.00;100432.91;5058965;28;20049;-83
2022/08/26 01:47:44;;;;;;;42.67;38.75;;;;;;;20.91;100.00;100432.00;5071193;28;20117;-83
2022/08/26 01:50:23;;;;;;;48.92;44.47;;;;;;;20.98;100.00;100427.06;5067010;28;20053;-83
2022/08/26 01:52:53;;;;;;;54.22;49.95;;;;;;;21.01;100.00;100440.00;5063977;28;20051;-81
2022/08/26 01:55:24;;;;;;;55.35;50.63;;;;;;;20.99;100.00;100435.97;5069187;28;20044;-83
2022/08/26 01:57:54;;;;;;;40.95;37.67;;;;;;;19.97;100.00;100426.56;5064048;28;20050;-81
2022/08/26 02:03:15;;;;;;;45.80;42.08;;;;;;;20.58;100.00;100428.97;5076563;28;20051;-83
2022/08/26 02:05:43;;;;;;;49.60;45.40;;;;;;;20.01;100.00;100434.88;5073079;28;20072;-83
2022/08/26 02:08:10;;;;;;;45.90;41.97;;;;;;;20.54;100.00;100432.50;5075530;28;20055;-82
2022/08/26 02:10:38;;;;;;;47.08;42.50;;;;;;;20.81;100.00;100430.16;5076107;28;20506;-81
2022/08/26 02:13:07;;;;;;;42.92;39.17;;;;;;;20.88;100.00;100439.81;5077576;28;20460;-83
2022/08/26 02:15:35;;;;;;;45.72;41.75;;;;;;;20.39;100.00;100432.53;5076907;28;20059;-82
2022/08/26 02:18:04;;;;;;;50.38;45.55;;;;;;;20.30;100.00;100432.31;5072722;28;20055;-83
2022/08/26 02:20:38;;;;;;;52.45;47.60;;;;;;;20.65;100.00;100433.25;5070791;28;20048;-83
2022/08/26 02:23:05;;;;;;;55.55;50.58;;;;;;;20.49;100.00;100427.13;5077202;28;20049;-83
2022/08/26 02:25:41;;;;;;;46.35;42.53;;;;;;;20.67;100.00;100428.38;5074709;28;20396;-84
2022/08/26 02:28:11;;;;;;;50.85;46.40;;;;;;;20.93;100.00;100432.50;5068437;28;20404;-81
2022/08/26 02:30:40;;;;;;;45.35;41.83;;;;;;;20.76;100.00;100426.69;5076062;28;20044;-80
2022/08/26 02:33:15;;;;;;;43.08;39.83;;;;;;;21.07;100.00;100421.88;5079471;28;20553;-83
2022/08/26 02:35:42;;;;;;;45.35;40.88;;;;;;;20.95;100.00;100433.03;5078300;28;20051;-81
2022/08/26 02:38:10;;;;;;;52.53;48.33;;;;;;;20.97;100.00;100433.56;5085240;28;20110;-80
2022/08/26 02:40:45;;;;;;;51.78;47.40;;;;;;;20.93;100.00;100434.38;5070447;28;20052;-83
2022/08/26 02:43:14;;;;;;;54.53;50.88;;;;;;;20.67;100.00;100433.78;5063221;28;20040;-83
2022/08/26 02:45:41;;;;;;;71.05;65.22;;;;;;;20.68;100.00;100427.28;5078565;28;20051;-83
2022/08/26 02:48:12;;;;;;;69.05;64.32;;;;;;;20.78;100.00;100438.81;5079317;28;20135;-80
2022/08/26 02:50:39;;;;;;;51.20;46.67;;;;;;;20.71;100.00;100437.53;5075023;28;20488;-81
2022/08/26 02:53:08;;;;;;;56.33;52.05;;;;;;;20.38;100.00;100430.94;5075509;28;20048;-84
2022/08/26 02:55:36;;;;;;;60.47;55.70;;;;;;;20.44;100.00;100433.34;5075165;28;20044;-80
2022/08/26 02:58:04;;;;;;;60.05;54.90;;;;;;;20.81;100.00;100440.94;5073134;28;20040;-84
2022/08/26 03:00:35;;;;;;;58.13;53.38;;;;;;;20.00;100.00;100433.25;5070501;28;20062;-81
2022/08/26 03:03:02;;;;;;;76.60;71.07;;;;;;;20.00;100.00;100444.88;5073765;28;20122;-82
2022/08/26 03:05:29;;;;;;;64.05;58.95;;;;;;;20.02;100.00;100441.88;5070756;28;20307;-82
2022/08/26 03:07:56;;;;;;;67.70;62.75;;;;;;;20.35;100.00;100440.38;5083578;28;20055;-82
2022/08/26 03:10:23;;;;;;;67.25;61.55;;;;;;;20.59;100.00;100440.56;5086704;28;20040;-81
2022/08/26 03:12:51;;;;;;;67.82;62.25;;;;;;;19.81;100.00;100444.63;5071188;28;20041;-82
2022/08/26 03:15:19;;;;;;;54.42;49.47;;;;;;;20.31;100.00;100442.84;5072725;28;20037;-81
2022/08/26 03:17:48;;;;;;;53.33;49.63;;;;;;;20.73;100.00;100441.56;5076167;28;20051;-82
2022/08/26 03:20:17;;;;;;;51.58;47.00;;;;;;;20.67;100.00;100449.97;5080277;28;20131;-81
2022/08/26 03:22:44;;;;;;;53.03;49.13;;;;;;;20.51;100.00;100451.91;5070594;28;20483;-80
2022/08/26 03:25:15;;;;;;;46.75;43.03;;;;;;;20.55;100.00;100451.09;5074453;28;20082;-81
2022/08/26 03:27:44;;;;;;;60.25;55.40;;;;;;;19.98;100.00;100452.41;5067112;28;20071;-81
2022/08/26 03:33:02;;;;;;;62.20;57.90;;;;;;;20.33;100.00;100461.44;5076446;28;20518;-82
2022/08/26 03:35:30;;;;;;;57.42;53.20;;;;;;;20.22;100.00;100459.88;5076545;28;20056;-81
2022/08/26 03:37:58;;;;;;;48.25;44.22;;;;;;;19.83;100.00;100457.84;5076549;28;20044;-81
2022/08/26 03:40:26;;;;;;;44.83;40.80;;;;;;;19.91;100.00;100457.28;5089183;28;20056;-82
2022/08/26 03:42:53;;;;;;;51.80;47.75;;;;;;;20.09;100.00;100455.88;5071558;28;20044;-82
2022/08/26 03:45:22;;;;;;;44.38;40.22;;;;;;;20.64;100.00;100458.63;5073778;28;20066;-80
2022/08/26 03:47:56;;;;;;;44.05;40.60;;;;;;;20.65;100.00;100462.94;5075939;28;20059;-81
2022/08/26 03:50:25;;;;;;;41.50;38.17;;;;;;;20.67;100.00;100458.88;5071868;28;20400;-82
2022/08/26 03:52:54;;;;;;;44.22;40.35;;;;;;;20.56;100.00;100458.09;5074840;28;20408;-82
2022/08/26 03:55:23;;;;;;;44.78;40.40;;;;;;;20.55;100.00;100466.50;5072481;28;20396;-81
2022/08/26 03:57:50;;;;;;;40.53;36.97;;;;;;;20.52;100.00;100457.06;5072559;28;20055;-81
2022/08/26 04:00:17;;;;;;;41.72;38.58;;;;;;;20.47;100.00;100459.75;5078033;28;20396;-80
2022/08/26 04:02:48;;;;;;;36.80;33.85;;;;;;;20.53;100.00;100464.06;5067907;28;20420;-82
2022/08/26 04:05:18;;;;;;;35.10;31.60;;;;;;;20.57;100.00;100459.75;5066608;28;20068;-82
2022/08/26 04:07:46;;;;;;;36.53;33.33;;;;;;;20.64;100.00;100464.03;5063686;28;20045;-80
2022/08/26 04:10:16;;;;;;;34.17;30.70;;;;;;;20.66;100.00;100469.94;5065015;28;20055;-82
2022/08/26 04:12:45;;;;;;;35.60;32.70;;;;;;;20.70;100.00;100466.41;5069528;28;20469;-81
2022/08/26 04:15:15;;;;;;;38.58;34.40;;;;;;;20.34;100.00;100468.44;5074352;28;20058;-81
2022/08/26 04:17:43;;;;;;;36.38;33.22;;;;;;;20.64;100.00;100466.72;5073841;28;20053;-82
2022/08/26 04:20:12;;;;;;;40.63;37.65;;;;;;;20.57;100.00;100469.69;5075853;28;20048;-81
2022/08/26 04:22:40;;;;;;;37.65;34.83;;;;;;;20.65;100.00;100479.91;5071389;28;20078;-81
2022/08/26 04:25:10;;;;;;;38.13;34.95;;;;;;;20.78;100.00;100471.19;5068727;28;20049;-82
2022/08/26 04:27:38;;;;;;;38.75;35.47;;;;;;;20.37;100.00;100470.59;5071249;28;20063;-81
2022/08/26 04:30:06;;;;;;;39.72;36.55;;;;;;;20.67;100.00;100466.16;5076627;28;20040;-80
2022/08/26 04:32:33;;;;;;;38.70;36.33;;;;;;;20.90;100.00;100468.16;5074866;28;20059;-82
2022/08/26 04:35:00;;;;;;;39.78;36.22;;;;;;;21.18;100.00;100463.91;5076840;28;20048;-81
2022/08/26 04:37:27;;;;;;;37.58;33.92;;;;;;;21.19;100.00;100470.91;5075768;28;20051;-82
2022/08/26 04:39:54;;;;;;;34.47;31.73;;;;;;;21.13;100.00;100471.22;5077786;28;20052;-82
2022/08/26 04:42:23;;;;;;;35.40;32.08;;;;;;;21.14;100.00;100481.75;5075148;28;20046;-82
2022/08/26 04:44:52;;;;;;;37.63;34.45;;;;;;;21.04;100.00;100474.53;5077679;28;20076;-81
2022/08/26 04:47:19;;;;;;;35.90;33.13;;;;;;;21.16;100.00;100473.38;5075743;28;20049;-80
2022/08/26 04:49:47;;;;;;;40.92;37.83;;;;;;;20.86;100.00;100471.69;5068482;28;20049;-82
2022/08/26 04:52:15;;;;;;;39.75;35.72;;;;;;;21.11;100.00;100474.19;5075748;28;20045;-83
2022/08/26 04:54:45;;;;;;;38.55;35.05;;;;;;;21.47;100.00;100468.53;5075279;28;20557;-81
2022/08/26 04:57:12;;;;;;;42.50;38.60;;;;;;;21.47;100.00;100471.25;5071493;28;20067;-81
2022/08/26 04:59:40;;;;;;;37.35;33.67;;;;;;;21.66;100.00;100471.31;5074384;28;20208;-81
2022/08/26 05:02:10;;;;;;;38.53;34.72;;;;;;;21.71;100.00;100469.38;5074610;28;20048;-81
2022/08/26 05:04:37;;;;;;;39.05;34.92;;;;;;;21.62;100.00;100462.97;5078635;28;20054;-82
2022/08/26 05:07:05;;;;;;;40.30;36.17;;;;;;;21.63;100.00;100467.28;5070375;28;20061;-81
2022/08/26 05:09:31;;;;;;;43.17;38.55;;;;;;;21.76;100.00;100473.13;5075527;28;20048;-82
2022/08/26 05:11:58;;;;;;;41.78;37.65;;;;;;;21.67;100.00;100475.66;5076256;28;20400;-81
2022/08/26 05:14:26;;;;;;;43.10;39.38;;;;;;;21.56;100.00;100479.53;5069301;28;20048;-80
2022/08/26 05:16:54;;;;;;;40.15;36.70;;;;;;;21.49;100.00;100477.16;5071540;28;20049;-81
2022/08/26 05:19:22;;;;;;;38.92;34.95;;;;;;;21.54;100.00;100479.00;5067595;28;20059;-80
2022/08/26 05:21:50;;;;;;;38.22;34.10;;;;;;;21.56;100.00;100483.03;5067558;28;20052;-81
2022/08/26 05:24:18;;;;;;;36.78;33.38;;;;;;;21.49;100.00;100475.28;5076953;28;20059;-83
2022/08/26 05:26:46;;;;;;;36.78;32.83;;;;;;;21.94;100.00;100467.78;5068519;28;20067;-79
2022/08/26 05:29:13;;;;;;;38.10;34.53;;;;;;;22.02;100.00;100473.63;5070589;28;20515;-81
2022/08/26 05:31:41;;;;;;;35.92;32.50;;;;;;;22.07;100.00;100474.41;5073423;28;20048;-80
2022/08/26 05:34:09;;;;;;;36.00;32.50;;;;;;;22.03;100.00;100473.38;5077398;28;20052;-80
2022/08/26 05:36:37;;;;;;;36.25;32.97;;;;;;;22.41;100.00;100468.06;5075641;28;20052;-80
2022/08/26 05:39:06;;;;;;;38.65;32.25;;;;;;;22.45;100.00;100471.81;5077002;28;20049;-80
2022/08/26 05:41:37;;;;;;;38.38;34.75;;;;;;;22.59;100.00;100480.78;5076246;28;20045;-81
2022/08/26 05:44:07;;;;;;;37.05;33.75;;;;;;;22.74;100.00;100471.66;5073127;28;20067;-80
2022/08/26 05:46:35;;;;;;;35.45;32.20;;;;;;;22.89;100.00;100467.91;5070187;28;20058;-82
2022/08/26 05:49:03;;;;;;;38.38;34.72;;;;;;;22.96;100.00;100476.50;5074038;28;20044;-83
2022/08/26 05:51:31;;;;;;;36.88;33.10;;;;;;;23.01;100.00;100476.41;5072688;28;20441;-80
2022/08/26 05:54:01;;;;;;;37.83;31.00;;;;;;;22.95;100.00;100468.69;5071880;28;20468;-81
2022/08/26 05:56:28;;;;;;;35.47;32.00;;;;;;;23.14;100.00;100476.75;5076130;28;20266;-80
2022/08/26 05:58:56;;;;;;;37.05;31.98;;;;;;;23.07;100.00;100472.53;5076374;28;20044;-80
2022/08/26 06:01:25;;;;;;;34.60;31.25;;;;;;;23.18;100.00;100473.19;5077176;28;20480;-80
2022/08/26 06:03:57;;;;;;;38.08;34.65;;;;;;;23.30;100.00;100468.09;5075446;28;20052;-81
2022/08/26 06:06:25;;;;;;;35.35;31.70;;;;;;;23.47;100.00;100466.72;5076477;28;20045;-80
2022/08/26 06:08:54;;;;;;;37.72;34.10;;;;;;;23.51;100.00;100476.69;5073590;28;20056;-83
2022/08/26 06:11:24;;;;;;;33.55;30.25;;;;;;;23.68;100.00;100469.88;5076356;28;20054;-82
2022/08/26 06:13:52;;;;;;;33.95;30.75;;;;;;;23.68;100.00;100476.09;5078187;28;20071;-82
2022/08/26 06:16:21;;;;;;;35.63;31.85;;;;;;;24.03;100.00;100467.63;5076824;28;20131;-82
2022/08/26 06:18:49;;;;;;;36.10;32.60;;;;;;;24.16;100.00;100480.38;5076188;28;20083;-80
2022/08/26 06:21:19;;;;;;;33.72;30.55;;;;;;;24.05;100.00;100473.53;5077575;28;20476;-81
2022/08/26 06:26:35;;;;;;;38.40;27.80;;;;;;;24.16;100.00;100480.38;5068928;28;20133;-82
2022/08/26 06:29:03;;;;;;;32.85;29.67;;;;;;;23.91;100.00;100473.56;5074177;28;20036;-79
2022/08/26 06:31:32;;;;;;;39.30;31.55;;;;;;;24.27;100.00;100473.63;5074606;28;20495;-81
2022/08/26 06:33:59;;;;;;;31.67;28.67;;;;;;;24.30;100.00;100475.75;5076646;28;20051;-81
2022/08/26 06:36:29;;;;;;;35.58;32.47;;;;;;;24.28;100.00;100477.94;5077445;28;20052;-82
2022/08/26 06:39:00;;;;;;;35.05;32.35;;;;;;;24.66;100.00;100480.41;5073936;28;20427;-80
2022/08/26 06:41:30;;;;;;;35.08;32.42;;;;;;;24.80;100.00;100488.53;5073150;28;20062;-81
2022/08/26 06:43:59;;;;;;;33.22;30.10;;;;;;;24.80;100.00;100488.53;5076663;28;20051;-80
2022/08/26 06:46:26;;;;;;;40.63;31.67;;;;;;;24.62;100.00;100484.84;5074273;28;20121;-80
2022/08/26 06:48:53;;;;;;;31.27;28.48;;;;;;;24.72;100.00;100492.78;5071037;28;20055;-80
2022/08/26 06:51:23;;;;;;;36.03;32.45;;;;;;;24.82;100.00;100483.59;5076196;28;20047;-81
2022/08/26 06:53:52;;;;;;;31.88;28.90;;;;;;;24.54;100.00;100480.97;5074218;28;20055;-80
2022/08/26 06:56:23;;;;;;;35.80;33.40;;;;;;;24.37;100.00;100480.75;5072840;28;20045;-82
2022/08/26 06:58:50;;;;;;;31.65;28.80;;;;;;;25.09;100.00;100485.41;5071909;28;20955;-82
2022/08/26 07:01:21;;;;;;;32.58;29.98;;;;;;;25.21;100.00;100479.44;5075755;28;20059;-81
2022/08/26 07:03:50;;;;;;;30.80;28.30;;;;;;;25.00;100.00;100479.91;5078942;28;20040;-83
2022/08/26 07:06:18;;;;;;;30.13;27.23;;;;;;;24.73;100.00;100485.44;5081126;28;20406;-81
2022/08/26 07:08:46;;;;;;;30.30;27.35;;;;;;;25.39;100.00;100483.03;5074046;28;20454;-83
2022/08/26 07:11:13;;;;;;;30.98;28.13;;;;;;;25.32;100.00;100486.22;5072012;28;20404;-81
2022/08/26 07:13:41;;;;;;;36.15;30.98;;;;;;;25.50;100.00;100482.47;5082242;28;20044;-80
2022/08/26 07:16:11;;;;;;;34.58;31.77;;;;;;;25.14;100.00;100490.72;5069391;28;20049;-80
2022/08/26 07:18:41;;;;;;;30.83;28.13;;;;;;;25.71;100.00;100480.03;5075101;28;20540;-81
2022/08/26 07:21:11;;;;;;;33.42;30.13;;;;;;;25.03;100.00;100490.16;5070818;28;20075;-82
2022/08/26 07:23:39;;;;;;;31.83;29.10;;;;;;;25.01;100.00;100486.13;5064969;28;20051;-81
2022/08/26 07:26:06;;;;;;;36.53;32.63;;;;;;;25.08;100.00;100478.34;5076357;28;20044;-80
2022/08/26 07:28:33;;;;;;;32.95;30.25;;;;;;;25.19;100.00;100484.38;5074306;28;20044;-83
2022/08/26 07:31:04;;;;;;;30.52;27.33;;;;;;;25.30;100.00;100478.38;5080618;28;20044;-80
2022/08/26 07:33:31;;;;;;;31.65;28.73;;;;;;;25.83;100.00;100478.66;5074836;28;20053;-80
2022/08/26 07:36:00;;;;;;;30.23;27.00;;;;;;;26.34;98.31;100480.75;5070628;28;20044;-81
2022/08/26 07:38:27;;;;;;;30.75;27.88;;;;;;;26.80;93.52;100486.75;5064437;28;20154;-80
2022/08/26 07:40:55;;;;;;;31.17;28.10;;;;;;;26.25;95.39;100478.00;5074402;28;20393;-82
2022/08/26 07:43:22;;;;;;;30.30;27.48;;;;;;;27.06;91.50;100475.84;5073557;28;20055;-81
2022/08/26 07:45:49;;;;;;;30.92;28.10;;;;;;;27.01;90.67;100479.53;5072333;28;20048;-82
2022/08/26 07:48:16;;;;;;;31.73;25.85;;;;;;;26.97;87.84;100477.78;5080410;28;20052;-83
2022/08/26 07:50:44;;;;;;;27.80;25.50;;;;;;;26.60;95.05;100475.38;5076519;28;20055;-81
2022/08/26 07:53:13;;;;;;;29.40;26.83;;;;;;;27.23;89.42;100472.31;5066424;28;20044;-79
2022/08/26 07:55:40;;;;;;;31.58;28.30;;;;;;;27.63;82.04;100486.50;5077670;28;20413;-79
2022/08/26 07:58:07;;;;;;;31.33;28.55;;;;;;;26.93;81.05;100478.41;5071791;28;20059;-82
2022/08/26 08:00:36;;;;;;;31.08;28.38;;;;;;;27.55;83.78;100484.59;5080585;28;20052;-81
2022/08/26 08:03:05;;;;;;;29.63;26.67;;;;;;;27.95;85.14;100476.91;5075061;28;20052;-83
2022/08/26 08:05:32;;;;;;;30.60;28.17;;;;;;;27.71;75.46;100479.38;5084878;28;20102;-79
2022/08/26 08:08:00;;;;;;;31.02;28.02;;;;;;;27.74;76.47;100478.72;5070370;28;20064;-80
2022/08/26 08:10:29;;;;;;;32.15;28.92;;;;;;;27.66;62.10;100474.94;5072085;28;20049;-80
2022/08/26 08:12:57;;;;;;;31.13;28.23;;;;;;;27.94;62.94;100474.50;5075651;28;20044;-84
2022/08/26 08:15:28;;;;;;;30.67;27.58;;;;;;;28.14;70.92;100459.28;5088585;28;20392;-80
2022/08/26 08:17:56;;;;;;;32.30;29.55;;;;;;;27.31;62.03;100474.22;5069549;28;20114;-82
2022/08/26 08:20:23;;;;;;;30.67;27.98;;;;;;;28.34;68.61;100464.00;5086518;28;20044;-80
2022/08/26 08:22:52;;;;;;;31.02;28.52;;;;;;;29.09;65.03;100463.28;5071644;28;20489;-80
2022/08/26 08:25:20;;;;;;;29.20;26.58;;;;;;;28.48;65.49;100464.56;5080561;28;20037;-82
2022/08/26 08:27:48;;;;;;;30.63;27.63;;;;;;;28.06;63.57;100466.41;5078883;28;20053;-83
2022/08/26 08:30:18;;;;;;;31.75;28.48;;;;;;;29.16;66.65;100458.06;5075830;28;20052;-82
2022/08/26 08:32:45;;;;;;;33.63;27.77;;;;;;;28.82;72.20;100451.75;5072935;28;20483;-83
2022/08/26 08:35:17;;;;;;;31.08;27.98;;;;;;;28.29;61.75;100453.25;5072821;28;20374;-83
2022/08/26 08:37:44;;;;;;;32.95;28.25;;;;;;;28.45;69.41;100446.13;5067977;28;20066;-81
2022/08/26 08:40:16;;;;;;;30.50;27.65;;;;;;;29.31;53.05;100446.47;5086684;28;20468;-82
2022/08/26 08:42:45;;;;;;;;;;;;;;;29.21;50.96;100447.72;5079045;28;20131;-80
2022/08/26 08:45:17;;;;;;;33.20;29.98;;;;;;;30.03;55.37;100443.34;5071212;28;19920;-78
2022/08/26 08:47:50;;;;;;;31.77;29.42;;;;;;;29.58;53.64;100431.34;5074083;28;20040;-81
2022/08/26 08:50:26;;;;;;;30.05;27.40;;;;;;;30.42;49.76;100435.56;5075320;28;20045;-81
2022/08/26 08:53:04;;;;;;;33.25;30.52;;;;;;;31.00;48.79;100423.13;5082942;28;20044;-81
2022/08/26 08:55:38;;;;;;;28.52;26.35;;;;;;;31.31;56.41;100423.50;5077634;28;20473;-81
2022/08/26 08:58:08;;;;;;;30.50;27.70;;;;;;;30.85;52.73;100414.88;5070741;28;20479;-81
2022/08/26 09:00:45;;;;;;;34.10;30.08;;;;;;;31.05;48.32;100415.81;5073606;28;20045;-80
2022/08/26 09:03:31;;;;;;;32.50;29.52;;;;;;;31.47;51.30;100419.66;5078261;28;20048;-79
2022/08/26 09:06:01;;;;;;;32.03;28.73;;;;;;;31.25;45.19;100412.00;5077403;28;20462;-81
2022/08/26 09:08:34;;;;;;;31.00;28.23;;;;;;;30.52;50.16;100413.94;5070386;28;20382;-78
2022/08/26 09:11:03;;;;;;;31.25;27.77;;;;;;;31.54;50.17;100412.75;5073532;28;20052;-83
2022/08/26 09:13:30;;;;;;;30.63;27.77;;;;;;;31.73;54.12;100415.56;5079577;28;20052;-79
2022/08/26 09:16:06;;;;;;;31.55;29.08;;;;;;;30.98;45.56;100408.16;5068838;28;20040;-80
2022/08/26 09:18:51;;;;;;;31.75;29.00;;;;;;;32.23;43.45;100405.72;5074221;28;20044;-82
2022/08/26 09:21:19;;;;;;;34.63;31.48;;;;;;;31.97;41.71;100403.59;5073290;28;20048;-81
2022/08/26 09:23:47;;;;;;;33.03;30.13;;;;;;;32.12;42.33;100402.75;5071128;28;20044;-81
2022/08/26 09:26:19;;;;;;;31.95;29.48;;;;;;;32.14;42.96;100399.66;5074845;28;20469;-83
2022/08/26 09:28:48;;;;;;;32.90;29.55;;;;;;;31.69;45.84;100399.00;5074019;28;20094;-81
2022/08/26 09:31:22;;;;;;;35.17;32.15;;;;;;;31.59;38.17;100393.25;5078370;28;20048;-81
2022/08/26 09:34:02;;;;;;;32.15;29.55;;;;;;;31.82;46.98;100396.16;5069690;28;20049;-80
2022/08/26 09:36:36;;;;;;;31.63;28.48;;;;;;;32.18;43.79;100389.53;5070602;28;20056;-81
2022/08/26 09:39:03;;;;;;;34.08;31.40;;;;;;;32.76;41.09;100385.97;5072986;28;20048;-82
2022/08/26 09:41:47;;;;;;;30.65;27.65;;;;;;;33.20;42.31;100389.16;5076327;28;20067;-80
2022/08/26 09:44:19;;;;;;;31.80;28.88;;;;;;;33.10;40.15;100384.25;5055797;28;20053;-78
2022/08/26 09:46:58;;;;;;;34.17;31.05;;;;;;;32.83;48.35;100384.19;5068798;28;20082;-81
2022/08/26 09:49:34;;;;;;;35.50;32.47;;;;;;;32.91;40.18;100384.28;5069977;28;20404;-78
2022/08/26 09:52:27;;;;;;;34.53;31.63;;;;;;;32.48;46.58;100386.25;5079906;28;20087;-78
2022/08/26 09:55:14;;;;;;;33.38;30.52;;;;;;;32.72;45.63;100385.13;5068626;28;20041;-80
2022/08/26 09:57:50;;;;;;;34.67;31.83;;;;;;;32.75;43.61;100390.69;5069691;28;20177;-79
2022/08/26 10:00:30;;;;;;;31.98;29.58;;;;;;;32.92;35.59;100391.38;5072248;28;20049;-83
2022/08/26 10:03:07;;;;;;;31.48;29.17;;;;;;;32.50;44.86;100398.47;5075876;28;20051;-81
2022/08/26 10:05:39;;;;;;;34.08;31.73;;;;;;;32.35;40.78;100394.59;5069385;28;20136;-80
2022/08/26 10:08:19;;;;;;;31.73;28.92;;;;;;;32.43;37.07;100398.28;5065993;28;20044;-81
2022/08/26 10:10:49;;;;;;;35.60;32.30;;;;;;;32.02;38.52;100399.78;5073433;28;20037;-80
2022/08/26 10:13:20;;;;;;;32.88;30.30;;;;;;;32.70;37.98;100388.22;5069391;28;20460;-78
2022/08/26 10:16:03;;;;;;;33.08;29.65;;;;;;;32.85;38.58;100387.34;5071159;28;20059;-82
2022/08/26 10:18:33;;;;;;;;;;;;;;;32.56;35.87;100383.28;5070746;28;20044;-78
2022/08/26 10:21:07;;;;;;;34.17;31.98;;;;;;;31.80;36.22;100396.53;5077256;28;19927;-81
2022/08/26 10:23:40;;;;;;;34.15;30.90;;;;;;;31.84;36.41;100385.63;5065176;28;20063;-80
2022/08/26 10:26:12;;;;;;;34.65;31.75;;;;;;;32.27;37.90;100383.81;5069731;28;20040;-82
2022/08/26 10:28:43;;;;;;;35.17;32.60;;;;;;;31.89;36.27;100391.66;5072557;28;20048;-80
2022/08/26 10:31:28;;;;;;;40.10;36.33;;;;;;;32.19;36.27;100388.34;5073051;28;20052;-77
2022/08/26 10:33:57;;;;;;;39.58;36.83;;;;;;;32.06;35.67;100378.66;5065957;28;20055;-82
2022/08/26 10:39:22;;;;;;;38.78;35.55;;;;;;;32.79;37.29;100382.50;5065380;28;20048;-83
2022/08/26 10:41:59;;;;;;;37.97;34.33;;;;;;;32.66;37.11;100376.38;5073582;28;20129;-82
2022/08/26 10:44:32;;;;;;;31.23;28.30;;;;;;;32.41;37.47;100367.63;5060418;28;20131;-81
2022/08/26 10:47:06;;;;;;;32.92;30.23;;;;;;;31.76;49.06;100372.88;5066926;28;20055;-81
2022/08/26 10:49:34;;;;;;;33.50;31.13;;;;;;;31.97;36.68;100375.31;5068676;28;20056;-78
2022/08/26 10:52:05;;;;;;;32.53;29.67;;;;;;;32.63;37.11;100365.31;5068799;28;20043;-80
2022/08/26 10:54:45;;;;;;;33.33;30.30;;;;;;;32.32;37.14;100367.06;5066537;28;20056;-78
2022/08/26 10:57:22;;;;;;;29.85;27.42;;;;;;;32.39;36.91;100367.19;5066282;28;20055;-79
2022/08/26 10:59:58;;;;;;;32.33;29.27;;;;;;;32.49;37.41;100358.38;5071285;28;20068;-79
2022/08/26 11:02:38;;;;;;;34.40;31.50;;;;;;;31.74;45.08;100359.50;5068566;28;20060;-83
2022/08/26 11:05:23;;;;;;;31.13;28.42;;;;;;;32.22;38.56;100351.91;5067629;28;20087;-82
2022/08/26 11:07:53;;;;;;;30.00;26.88;;;;;;;31.97;48.97;100356.91;5062779;28;20122;-83
2022/08/26 11:11:05;;;;;;;31.05;28.63;;;;;;;31.82;47.18;100352.22;5068315;28;20080;-78
2022/08/26 11:13:59;;;;;;;32.95;30.05;;;;;;;32.03;42.03;100347.22;5072649;28;20424;-79
2022/08/26 11:16:33;;;;;;;30.10;26.75;;;;;;;32.34;44.90;100340.78;5014568;28;20083;-79
2022/08/26 11:19:00;;;;;;;30.10;27.77;;;;;;;32.38;39.63;100338.13;5068999;28;20059;-79
2022/08/26 11:21:51;;;;;;;32.90;30.17;;;;;;;32.13;36.16;100343.09;5069802;28;20063;-79
2022/08/26 11:24:43;;;;;;;31.52;28.33;;;;;;;32.32;39.50;100336.84;5065655;28;20114;-77
2022/08/26 11:27:41;;;;;;;32.65;29.80;;;;;;;32.55;39.63;100340.44;5068994;28;20148;-76
2022/08/26 11:30:29;;;;;;;31.45;28.27;;;;;;;32.34;37.75;100342.75;5068448;28;20140;-77